VCCC/RML METAR and TAF weather

Enter ICAO airport designator
Station Type Date Time Source
VCCC METAR 2023/03/18 08:00 UTC NOAA

VCCC 180800Z 29005KT 9999 FEW016TCU(NE/E/SE) 33/23 Q1008 A2978


Station Type Date Time Source
VCCC Decoded METAR 2023/03/18 08:00 UTC NOAA

Ratmalana, Sri Lanka (VCCC) 06-49N 079-53E 5M
Mar 18, 2023 - 04:00 AM EDT / 2023.03.18 0800 UTC
Wind: from the WNW (290 degrees) at 6 MPH (5 KT):0
Visibility: greater than 7 mile(s):0
Sky conditions: mostly clear
Weather: Towering cumulus clouds observed
Temperature: 91 F (33 C)
Heat index: 99.1 F (37.3 C):1
Dew Point: 73 F (23 C)
Relative Humidity: 55%
Pressure (altimeter): 29.78 in. Hg (1008 hPa)
ob: VCCC 180800Z 29005KT 9999 FEW016TCU(NE/E/SE) 33/23 Q1008 A2978
cycle: 8

Station Type Date Time Source
VCCC TAF UTC NOAA

Error!

Example: see airport list